createdAt,value
2018-11-05T00:00:39.320Z,100461.80
2018-11-05T00:03:10.548Z,100455.41
2018-11-05T00:05:41.795Z,100449.70
2018-11-05T00:08:12.903Z,100454.64
2018-11-05T00:10:44.122Z,100462.30
2018-11-05T00:13:15.248Z,100471.83
2018-11-05T00:15:49.539Z,100467.02
2018-11-05T00:18:20.962Z,100460.27
2018-11-05T00:20:52.199Z,100452.42
2018-11-05T00:23:23.512Z,100444.04
2018-11-05T00:25:54.763Z,100439.45
2018-11-05T00:28:25.925Z,100441.89
2018-11-05T00:31:00.240Z,100442.65
2018-11-05T00:33:31.448Z,100446.38
2018-11-05T00:36:02.646Z,100436.10
2018-11-05T00:38:34.147Z,100427.02
2018-11-05T00:41:05.617Z,100424.34
2018-11-05T00:43:37.175Z,100423.73
2018-11-05T00:46:08.936Z,100413.02
2018-11-05T00:48:40.119Z,100408.64
2018-11-05T00:51:14.043Z,100416.39
2018-11-05T00:53:45.484Z,100418.30
2018-11-05T00:56:16.646Z,100404.13
2018-11-05T00:58:47.830Z,100397.70
2018-11-05T01:01:19.408Z,100396.09
2018-11-05T01:03:50.941Z,100394.86
2018-11-05T01:06:22.110Z,100396.87
2018-11-05T01:08:53.241Z,100397.30
2018-11-05T01:11:24.703Z,100391.56
2018-11-05T01:13:58.012Z,100397.57
2018-11-05T01:16:29.387Z,100387.45
2018-11-05T01:19:06.680Z,100388.30
2018-11-05T01:21:37.972Z,100381.15
2018-11-05T01:24:09.276Z,100386.69
2018-11-05T01:26:40.566Z,100384.13
2018-11-05T01:29:12.074Z,100378.28
2018-11-05T01:31:43.182Z,100377.34
2018-11-05T01:34:14.475Z,100390.55
2018-11-05T01:36:45.616Z,100387.95
2018-11-05T01:39:16.851Z,100380.94
2018-11-05T01:41:48.323Z,100382.52
2018-11-05T01:44:21.973Z,100377.67
2018-11-05T01:46:53.678Z,100372.39
2018-11-05T01:49:25.246Z,100363.89
2018-11-05T01:51:56.537Z,100372.04
2018-11-05T01:54:28.524Z,100371.92
2018-11-05T01:57:00.002Z,100366.39
2018-11-05T01:59:31.206Z,100371.69
2018-11-05T02:02:02.433Z,100364.77
2018-11-05T02:04:33.939Z,100368.33
2018-11-05T02:07:05.208Z,100364.27
2018-11-05T02:09:36.303Z,100365.59
2018-11-05T02:12:10.761Z,100356.48
2018-11-05T02:14:41.905Z,100341.76
2018-11-05T02:17:13.764Z,100333.00
2018-11-05T02:19:45.295Z,100321.50
2018-11-05T02:22:16.748Z,100325.53
2018-11-05T02:24:47.977Z,100328.04
2018-11-05T02:27:19.186Z,100311.03
2018-11-05T02:29:50.564Z,100313.70
2018-11-05T02:32:21.821Z,100315.88
2018-11-05T02:34:53.171Z,100307.64
2018-11-05T02:37:24.344Z,100312.61
2018-11-05T02:39:55.575Z,100312.78
2018-11-05T02:42:29.096Z,100316.05
2018-11-05T02:45:00.316Z,100310.18
2018-11-05T02:47:31.516Z,100304.89
2018-11-05T02:50:02.861Z,100317.44
2018-11-05T02:52:34.028Z,100316.91
2018-11-05T02:55:05.465Z,100312.14
2018-11-05T02:57:36.994Z,100312.26
2018-11-05T03:00:20.269Z,100320.30
2018-11-05T03:02:51.386Z,100314.47
2018-11-05T03:05:22.657Z,100314.27
2018-11-05T03:07:53.888Z,100316.34
2018-11-05T03:10:25.097Z,100310.02
2018-11-05T03:12:56.325Z,100302.16
2018-11-05T03:15:27.818Z,100306.41
2018-11-05T03:17:59.066Z,100308.31
2018-11-05T03:20:31.229Z,100308.00
2018-11-05T03:23:02.404Z,100309.41
2018-11-05T03:25:33.580Z,100313.97
2018-11-05T03:28:05.081Z,100316.03
2018-11-05T03:30:36.107Z,100310.41
2018-11-05T03:33:07.370Z,100312.67
2018-11-05T03:35:38.644Z,100313.12
2018-11-05T03:38:09.781Z,100307.08
2018-11-05T03:40:40.933Z,100318.30
2018-11-05T03:43:12.074Z,100315.88
2018-11-05T03:45:43.302Z,100309.38
2018-11-05T03:48:16.093Z,100308.29
2018-11-05T03:50:45.672Z,100304.75
2018-11-05T03:53:16.880Z,100299.17
2018-11-05T03:55:48.186Z,100306.47
2018-11-05T03:58:19.566Z,100298.67
2018-11-05T04:00:50.726Z,100297.73
2018-11-05T04:03:22.018Z,100293.88
2018-11-05T04:05:53.253Z,100288.69
2018-11-05T04:08:24.469Z,100279.52
2018-11-05T04:10:55.740Z,100277.37
2018-11-05T04:13:26.960Z,100279.42
2018-11-05T04:15:58.221Z,100269.39
2018-11-05T04:18:29.454Z,100270.04
2018-11-05T04:21:00.568Z,100267.25
2018-11-05T04:23:32.067Z,100262.39
2018-11-05T04:26:03.247Z,100259.50
2018-11-05T04:28:34.429Z,100250.95
2018-11-05T04:31:08.491Z,100258.95
2018-11-05T04:33:40.037Z,100258.30
2018-11-05T04:36:11.607Z,100261.98
2018-11-05T04:38:43.175Z,100253.78
2018-11-05T04:41:14.286Z,100252.39
2018-11-05T04:46:16.906Z,100264.86
2018-11-05T04:48:48.288Z,100271.22
2018-11-05T04:51:19.550Z,100212.70
2018-11-05T04:53:50.655Z,100271.13
2018-11-05T04:56:22.192Z,100267.23
2018-11-05T04:58:53.463Z,100265.62
2018-11-05T05:01:24.669Z,100263.03
2018-11-05T05:03:55.845Z,100261.23
2018-11-05T05:06:27.505Z,100266.66
2018-11-05T05:08:58.670Z,100265.38
2018-11-05T05:11:30.198Z,100270.46
2018-11-05T05:14:01.348Z,100279.41
2018-11-05T05:16:32.617Z,100285.16
2018-11-05T05:19:04.203Z,100275.58
2018-11-05T05:21:35.388Z,100275.52
2018-11-05T05:24:06.632Z,100270.08
2018-11-05T05:26:38.037Z,100262.75
2018-11-05T05:29:09.620Z,100265.81
2018-11-05T05:31:40.916Z,100255.58
2018-11-05T05:34:12.094Z,100252.58
2018-11-05T05:36:43.647Z,100259.34
2018-11-05T05:39:15.093Z,100263.13
2018-11-05T05:41:46.581Z,100202.09
2018-11-05T05:44:20.097Z,100262.09
2018-11-05T05:46:51.294Z,100266.57
2018-11-05T05:49:22.464Z,100270.11
2018-11-05T05:51:53.745Z,100268.27
2018-11-05T05:54:24.938Z,100269.51
2018-11-05T05:56:56.216Z,100271.84
2018-11-05T05:59:28.500Z,100280.15
2018-11-05T06:01:59.839Z,100283.59
2018-11-05T06:04:31.243Z,100270.88
2018-11-05T06:07:02.402Z,100275.18
2018-11-05T06:09:33.851Z,100272.24
2018-11-05T06:12:05.146Z,100269.83
2018-11-05T06:14:36.327Z,100257.42
2018-11-05T06:17:07.743Z,100254.73
2018-11-05T06:19:39.049Z,100258.03
2018-11-05T06:22:10.488Z,100253.20
2018-11-05T06:24:41.776Z,100254.05
2018-11-05T06:27:13.023Z,100252.25
2018-11-05T06:29:49.980Z,100252.66
2018-11-05T06:32:21.298Z,100260.44
2018-11-05T06:34:52.609Z,100261.76
2018-11-05T06:37:23.863Z,100267.35
2018-11-05T06:39:55.029Z,100272.94
2018-11-05T06:42:26.315Z,100291.80
2018-11-05T06:44:57.741Z,100291.01
2018-11-05T06:47:28.948Z,100299.92
2018-11-05T06:50:03.414Z,100303.37
2018-11-05T06:52:34.537Z,100308.90
2018-11-05T06:55:06.081Z,100292.06
2018-11-05T06:57:37.316Z,100299.71
2018-11-05T07:00:24.177Z,100291.44
2018-11-05T07:02:55.624Z,100294.47
2018-11-05T07:05:27.309Z,100308.30
2018-11-05T07:07:59.334Z,100308.69
2018-11-05T07:10:30.667Z,100298.11
2018-11-05T07:13:02.334Z,100283.92
2018-11-05T07:15:33.646Z,100289.95
2018-11-05T07:18:05.121Z,100293.78
2018-11-05T07:20:36.427Z,100286.51
2018-11-05T07:23:07.851Z,100288.50
2018-11-05T07:25:39.017Z,100284.86
2018-11-05T07:28:10.414Z,100286.07
2018-11-05T07:30:42.113Z,100286.67
2018-11-05T07:33:13.318Z,100271.85
2018-11-05T07:35:44.536Z,100280.03
2018-11-05T07:38:15.812Z,100276.41
2018-11-05T07:40:47.593Z,100278.67
2018-11-05T07:43:21.056Z,100277.25
2018-11-05T07:45:53.459Z,100288.59
2018-11-05T07:48:23.457Z,100299.13
2018-11-05T07:50:54.911Z,100305.79
2018-11-05T07:53:25.937Z,100319.66
2018-11-05T07:55:57.971Z,100313.51
2018-11-05T07:58:29.518Z,100317.13
2018-11-05T08:01:01.020Z,100320.38
2018-11-05T08:03:32.331Z,100329.77
2018-11-05T08:06:04.258Z,100319.42
2018-11-05T08:08:35.545Z,100310.91
2018-11-05T08:11:06.994Z,100310.08
2018-11-05T08:13:38.050Z,100305.97
2018-11-05T08:16:09.408Z,100290.48
2018-11-05T08:18:43.170Z,100284.84
2018-11-05T08:21:14.551Z,100278.98
2018-11-05T08:23:49.553Z,100276.20
2018-11-05T08:26:20.772Z,100258.54
2018-11-05T08:28:52.013Z,100245.95
2018-11-05T08:31:23.286Z,100242.61
2018-11-05T08:33:54.625Z,100237.48
2018-11-05T08:36:25.791Z,100240.26
2018-11-05T08:38:57.287Z,100246.41
2018-11-05T08:41:28.744Z,100243.86
2018-11-05T08:43:59.833Z,100245.38
2018-11-05T08:46:31.203Z,100251.70
2018-11-05T08:49:02.548Z,100238.80
2018-11-05T08:51:34.156Z,100232.55
2018-11-05T08:54:05.398Z,100252.01
2018-11-05T08:56:36.574Z,100239.66
2018-11-05T08:59:08.132Z,100235.26
2018-11-05T09:01:40.381Z,100234.00
2018-11-05T09:04:15.050Z,100218.56
2018-11-05T09:06:46.264Z,100222.09
2018-11-05T09:09:18.066Z,100225.52
2018-11-05T09:11:49.688Z,100224.33
2018-11-05T09:14:20.940Z,100199.38
2018-11-05T09:16:52.434Z,100209.80
2018-11-05T09:19:23.657Z,100207.77
2018-11-05T09:21:54.793Z,100202.22
2018-11-05T09:24:26.428Z,100209.17
2018-11-05T09:26:58.149Z,100214.11
2018-11-05T09:29:29.556Z,100209.13
2018-11-05T09:32:00.997Z,100212.31
2018-11-05T09:34:32.351Z,100217.61
2018-11-05T09:37:03.661Z,100219.80
2018-11-05T09:39:35.739Z,100216.83
2018-11-05T09:42:07.246Z,100219.92
2018-11-05T09:44:38.380Z,100209.83
2018-11-05T09:47:09.668Z,100206.66
2018-11-05T09:49:41.048Z,100205.64
2018-11-05T09:52:12.543Z,100209.87
2018-11-05T09:54:43.849Z,100203.00
2018-11-05T09:57:15.745Z,100199.91
2018-11-05T09:59:47.120Z,100196.00
2018-11-05T10:02:18.523Z,100183.05
2018-11-05T10:04:50.359Z,100192.57
2018-11-05T10:07:21.405Z,100185.74
2018-11-05T10:09:55.254Z,100192.25
2018-11-05T10:12:26.816Z,100190.55
2018-11-05T10:14:58.172Z,100181.16
2018-11-05T10:17:29.682Z,100186.52
2018-11-05T10:20:01.063Z,100186.06
2018-11-05T10:22:32.460Z,100183.83
2018-11-05T10:25:03.973Z,100168.00
2018-11-05T10:27:35.019Z,100179.70
2018-11-05T10:30:07.923Z,100171.70
2018-11-05T10:32:39.531Z,100172.81
2018-11-05T10:35:10.911Z,100169.74
2018-11-05T10:37:42.305Z,100169.94
2018-11-05T10:40:23.082Z,100171.77
2018-11-05T10:42:54.506Z,100176.56
2018-11-05T10:45:25.749Z,100174.02
2018-11-05T10:47:57.057Z,100172.95
2018-11-05T10:50:28.758Z,100164.62
2018-11-05T10:52:59.795Z,100170.46
2018-11-05T10:55:31.015Z,100155.59
2018-11-05T10:58:02.704Z,100152.64
2018-11-05T11:00:50.871Z,100152.76
2018-11-05T11:03:22.161Z,100139.41
2018-11-05T11:05:53.337Z,100139.74
2018-11-05T11:08:24.631Z,100147.31
2018-11-05T11:10:55.947Z,100141.66
2018-11-05T11:13:27.776Z,100134.66
2018-11-05T11:15:59.066Z,100136.19
2018-11-05T11:18:30.641Z,100137.67
2018-11-05T11:21:01.916Z,100134.98
2018-11-05T11:23:33.206Z,100139.38
2018-11-05T11:26:04.505Z,100148.11
2018-11-05T11:28:35.816Z,100141.45
2018-11-05T11:31:08.001Z,100138.84
2018-11-05T11:33:39.565Z,100136.89
2018-11-05T11:36:10.924Z,100135.94
2018-11-05T11:38:42.378Z,100131.55
2018-11-05T11:41:13.768Z,100122.03
2018-11-05T11:43:45.733Z,100125.03
2018-11-05T11:46:16.906Z,100123.36
2018-11-05T11:48:48.620Z,100117.85
2018-11-05T11:51:19.825Z,100114.94
2018-11-05T11:53:51.600Z,100121.67
2018-11-05T11:56:23.477Z,100125.60
2018-11-05T11:58:54.838Z,100115.23
2018-11-05T12:01:26.795Z,100107.94
2018-11-05T12:03:58.742Z,100105.41
2018-11-05T12:06:30.004Z,100094.91
2018-11-05T12:09:01.411Z,100089.87
2018-11-05T12:11:32.861Z,100088.72
2018-11-05T12:14:04.156Z,100093.02
2018-11-05T12:16:35.663Z,100084.11
2018-11-05T12:19:09.146Z,100077.37
2018-11-05T12:21:41.021Z,100081.88
2018-11-05T12:24:12.335Z,100084.23
2018-11-05T12:26:43.560Z,100079.91
2018-11-05T12:29:14.746Z,100071.20
2018-11-05T12:31:46.127Z,100064.92
2018-11-05T12:34:17.166Z,100072.98
2018-11-05T12:36:48.651Z,100076.06
2018-11-05T12:39:19.725Z,100069.52
2018-11-05T12:41:50.985Z,100069.78
2018-11-05T12:44:22.013Z,100070.83
2018-11-05T12:46:53.379Z,100076.53
2018-11-05T12:49:29.873Z,100066.12
2018-11-05T12:52:03.825Z,100067.13
2018-11-05T12:54:34.935Z,100059.08
2018-11-05T12:57:06.675Z,100054.02
2018-11-05T12:59:37.971Z,100043.73
2018-11-05T13:02:09.279Z,100051.28
2018-11-05T13:04:40.681Z,100047.63
2018-11-05T13:07:52.186Z,100050.70
2018-11-05T13:10:23.415Z,100035.83
2018-11-05T13:12:54.683Z,100035.25
2018-11-05T13:15:26.002Z,100038.63
2018-11-05T13:17:59.504Z,100036.93
2018-11-05T13:20:30.751Z,100032.80
2018-11-05T13:23:04.535Z,100023.54
2018-11-05T13:25:35.714Z,100026.63
2018-11-05T13:28:06.835Z,100038.11
2018-11-05T13:30:38.192Z,100033.33
2018-11-05T13:33:09.438Z,100025.84
2018-11-05T13:35:40.746Z,100027.54
2018-11-05T13:38:12.619Z,100015.24
2018-11-05T13:40:43.431Z,100020.60
2018-11-05T13:43:14.939Z,100014.52
2018-11-05T13:45:46.399Z,100016.67
2018-11-05T13:48:18.156Z,100011.55
2018-11-05T13:50:48.938Z,100003.94
2018-11-05T13:53:23.043Z,100009.19
2018-11-05T13:55:58.047Z,100007.30
2018-11-05T13:58:28.412Z,99993.33
2018-11-05T14:01:02.625Z,99992.48
2018-11-05T14:03:34.168Z,99995.29
2018-11-05T14:06:05.425Z,99993.78
2018-11-05T14:08:41.845Z,99984.02
2018-11-05T14:11:13.040Z,99977.92
2018-11-05T14:13:44.128Z,99971.48
2018-11-05T14:16:15.311Z,99980.66
2018-11-05T14:18:47.517Z,99976.09
2018-11-05T14:21:17.624Z,99976.55
2018-11-05T14:23:51.036Z,99977.02
2018-11-05T14:26:22.247Z,99980.66
2018-11-05T14:28:54.132Z,99966.91
2018-11-05T14:31:27.454Z,99980.95
2018-11-05T14:33:58.584Z,99976.55
2018-11-05T14:36:29.683Z,99969.73
2018-11-05T14:39:00.761Z,99971.51
2018-11-05T14:41:34.242Z,99969.59
2018-11-05T14:44:05.480Z,99961.54
2018-11-05T14:46:36.606Z,99959.84
2018-11-05T14:49:08.001Z,99959.87
2018-11-05T14:51:39.833Z,99956.41
2018-11-05T14:54:14.144Z,99945.91
2018-11-05T14:56:48.073Z,99955.55
2018-11-05T14:59:19.295Z,99968.58
2018-11-05T15:02:08.934Z,99967.85
2018-11-05T15:04:42.481Z,99974.41
2018-11-05T15:07:13.942Z,99963.63
2018-11-05T15:09:54.846Z,99966.62
2018-11-05T15:12:26.063Z,99964.00
2018-11-05T15:14:57.214Z,99965.31
2018-11-05T15:17:29.571Z,99959.08
2018-11-05T15:20:01.157Z,99957.30
2018-11-05T15:22:31.791Z,99960.20
2018-11-05T15:25:02.981Z,99966.67
2018-11-05T15:27:36.266Z,99954.34
2018-11-05T15:30:27.719Z,99953.50
2018-11-05T15:32:59.354Z,99947.41
2018-11-05T15:35:30.722Z,99956.52
2018-11-05T15:38:01.905Z,99966.62
2018-11-05T15:40:36.057Z,99973.17
2018-11-05T15:43:07.715Z,99976.55
2018-11-05T15:45:39.844Z,99973.75
2018-11-05T15:48:11.220Z,99971.72
2018-11-05T15:50:42.608Z,99975.11
2018-11-05T15:53:14.284Z,99969.98
2018-11-05T15:55:47.767Z,99969.87
2018-11-05T15:58:22.167Z,99974.06
2018-11-05T16:00:53.740Z,99975.65
2018-11-05T16:03:26.310Z,99966.67
2018-11-05T16:05:56.482Z,99962.05
2018-11-05T16:08:28.182Z,99962.47
2018-11-05T16:10:59.259Z,99963.90
2018-11-05T16:13:30.524Z,99972.98
2018-11-05T16:16:01.675Z,99967.63
2018-11-05T16:18:32.892Z,99964.47
2018-11-05T16:21:05.790Z,99964.58
2018-11-05T16:23:39.960Z,99973.75
2018-11-05T16:26:11.943Z,99973.00
2018-11-05T16:28:43.181Z,99983.64
2018-11-05T16:31:17.375Z,99980.48
2018-11-05T16:33:49.191Z,99982.91
2018-11-05T16:36:20.941Z,99986.64
2018-11-05T16:39:00.212Z,99990.95
2018-11-05T16:41:31.376Z,99998.53
2018-11-05T16:44:04.628Z,99993.56
2018-11-05T16:46:38.756Z,99990.59
2018-11-05T16:49:09.934Z,99994.33
2018-11-05T16:51:41.066Z,99996.31
2018-11-05T16:54:12.312Z,99988.82
2018-11-05T16:56:45.157Z,99982.48
2018-11-05T16:59:32.071Z,99993.13
2018-11-05T17:02:03.863Z,99992.77
2018-11-05T17:04:54.105Z,100000.70
2018-11-05T17:07:28.305Z,99993.05
2018-11-05T17:10:02.291Z,99990.65
2018-11-05T17:12:33.604Z,99994.39
2018-11-05T17:15:04.917Z,99997.60
2018-11-05T17:17:36.101Z,100000.14
2018-11-05T17:20:10.086Z,100007.23
2018-11-05T17:22:42.180Z,99998.82
2018-11-05T17:25:14.142Z,100003.98
2018-11-05T17:27:51.220Z,100002.56
2018-11-05T17:30:26.254Z,99990.79
2018-11-05T17:32:59.182Z,99981.55
2018-11-05T17:35:32.716Z,99987.62
2018-11-05T17:38:04.003Z,99979.08
2018-11-05T17:40:37.977Z,99989.06
2018-11-05T17:43:09.677Z,99988.41
2018-11-05T17:45:41.027Z,99991.30
2018-11-05T17:48:12.218Z,99984.41
2018-11-05T17:50:57.130Z,99981.59
2018-11-05T17:53:28.122Z,99977.10
2018-11-05T17:56:01.025Z,99975.05
2018-11-05T17:58:32.322Z,99979.89
2018-11-05T18:01:03.444Z,99978.87
2018-11-05T18:03:35.999Z,99980.25
2018-11-05T18:06:08.244Z,99973.26
2018-11-05T18:08:40.114Z,99965.31
2018-11-05T18:11:11.322Z,99969.05
2018-11-05T18:13:42.590Z,99962.52
2018-11-05T18:16:13.715Z,99957.64
2018-11-05T18:18:50.503Z,99969.05
2018-11-05T18:21:24.488Z,99967.00
2018-11-05T18:23:58.469Z,99972.23
2018-11-05T18:26:31.344Z,99969.72
2018-11-05T18:29:04.274Z,99972.80
2018-11-05T18:31:36.571Z,99966.62
2018-11-05T18:34:08.081Z,99965.70
2018-11-05T18:36:39.657Z,99967.00
2018-11-05T18:39:14.123Z,99958.00
2018-11-05T18:41:47.777Z,99958.92
2018-11-05T18:44:19.024Z,99957.44
2018-11-05T18:46:50.494Z,99957.44
2018-11-05T18:49:23.979Z,99957.44
2018-11-05T18:52:18.900Z,99962.94
2018-11-05T18:54:50.122Z,99958.73
2018-11-05T18:57:21.622Z,99950.90
2018-11-05T18:59:56.350Z,99944.08
2018-11-05T19:02:36.488Z,99952.66
2018-11-05T19:05:09.567Z,99957.33
2018-11-05T19:07:40.784Z,99959.19
2018-11-05T19:10:12.345Z,99956.47
2018-11-05T19:12:47.641Z,99958.58
2018-11-05T19:15:35.850Z,99960.92
2018-11-05T19:18:10.514Z,99958.13
2018-11-05T19:20:46.215Z,99958.88
2018-11-05T19:23:23.790Z,99960.17
2018-11-05T19:25:56.812Z,99955.69
2018-11-05T19:28:35.975Z,99931.78
2018-11-05T19:31:08.859Z,99967.84
2018-11-05T19:33:44.656Z,99963.17
2018-11-05T19:36:18.406Z,99961.75
2018-11-05T19:38:57.104Z,99958.76
2018-11-05T19:41:32.786Z,99959.03
2018-11-05T19:44:07.094Z,99959.59
2018-11-05T19:46:42.941Z,99959.48
2018-11-05T19:49:14.393Z,99963.70
2018-11-05T19:51:54.773Z,99967.44
2018-11-05T19:54:37.377Z,99964.16
2018-11-05T19:57:13.508Z,99963.69
2018-11-05T19:59:49.301Z,99969.66
2018-11-05T20:02:30.673Z,99966.58
2018-11-05T20:05:04.278Z,99973.00
2018-11-05T20:07:37.819Z,99961.36
2018-11-05T20:10:14.609Z,99957.53
2018-11-05T20:12:53.047Z,99959.08
2018-11-05T20:15:29.675Z,99964.46
2018-11-05T20:18:06.345Z,99959.97
2018-11-05T20:20:37.900Z,99956.73
2018-11-05T20:23:11.355Z,99964.30
2018-11-05T20:25:45.316Z,99958.22
2018-11-05T20:28:20.779Z,99960.21
2018-11-05T20:30:55.790Z,99962.36
2018-11-05T20:33:28.884Z,99968.05
2018-11-05T20:36:03.245Z,99961.95
2018-11-05T20:38:36.955Z,99961.83
2018-11-05T20:41:12.924Z,99957.06
2018-11-05T20:43:49.241Z,99959.67
2018-11-05T20:46:23.118Z,99963.20
2018-11-05T20:48:57.622Z,99961.61
2018-11-05T20:51:32.138Z,99963.41
2018-11-05T20:54:05.669Z,99962.33
2018-11-05T20:56:39.653Z,99953.19
2018-11-05T20:59:13.256Z,99953.36
2018-11-05T21:01:47.747Z,99946.69
2018-11-05T21:04:21.084Z,99950.89
2018-11-05T21:06:54.456Z,99951.05
2018-11-05T21:09:28.097Z,99953.50
2018-11-05T21:12:03.043Z,99959.17
2018-11-05T21:14:37.382Z,99961.03
2018-11-05T21:17:10.798Z,99966.71
2018-11-05T21:19:48.087Z,99961.03
2018-11-05T21:22:21.510Z,99965.50
2018-11-05T21:24:54.662Z,99966.12
2018-11-05T21:27:28.421Z,99959.89
2018-11-05T21:30:02.072Z,99952.95
2018-11-05T21:32:37.686Z,99951.84
2018-11-05T21:35:29.449Z,99943.09
2018-11-05T21:38:05.062Z,99949.27
2018-11-05T21:40:38.643Z,99945.25
2018-11-05T21:43:12.564Z,99935.11
2018-11-05T21:45:45.950Z,99928.69
2018-11-05T21:48:35.566Z,99928.52
2018-11-05T21:51:08.443Z,99934.48
2018-11-05T21:53:41.687Z,99944.83
2018-11-05T21:56:13.862Z,99944.62
2018-11-05T21:58:46.233Z,99935.66
2018-11-05T22:01:19.691Z,99937.52
2018-11-05T22:03:54.265Z,99944.80
2018-11-05T22:06:28.265Z,99941.63
2018-11-05T22:09:03.622Z,99935.50
2018-11-05T22:11:37.088Z,99927.41
2018-11-05T22:14:10.624Z,99930.41
2018-11-05T22:16:50.027Z,99931.62
2018-11-05T22:19:23.250Z,99928.36
2018-11-05T22:21:57.617Z,99923.14
2018-11-05T22:24:38.522Z,99930.16
2018-11-05T22:27:11.872Z,99941.37
2018-11-05T22:29:45.843Z,99938.33
2018-11-05T22:32:21.245Z,99941.33
2018-11-05T22:35:02.859Z,99937.62
2018-11-05T22:37:37.397Z,99943.45
2018-11-05T22:40:17.205Z,99937.84
2018-11-05T22:44:10.857Z,99929.43
2018-11-05T22:46:44.561Z,99932.80
2018-11-05T22:49:18.247Z,99924.70
2018-11-05T22:51:51.718Z,99925.26
2018-11-05T22:54:25.683Z,99925.39
2018-11-05T22:56:59.074Z,99920.73
2018-11-05T22:59:32.335Z,99933.63
2018-11-05T23:02:06.393Z,99923.88
2018-11-05T23:04:40.278Z,99929.48
2018-11-05T23:07:13.329Z,99929.72
2018-11-05T23:09:47.390Z,99921.34
2018-11-05T23:12:22.231Z,99922.26
2018-11-05T23:14:57.354Z,99916.75
2018-11-05T23:17:32.783Z,99917.59
2018-11-05T23:20:07.003Z,99924.50
2018-11-05T23:22:41.795Z,99926.48
2018-11-05T23:25:16.148Z,99932.09
2018-11-05T23:27:50.635Z,99929.95
2018-11-05T23:30:24.238Z,99927.59
2018-11-05T23:32:59.370Z,99925.60
2018-11-05T23:35:33.018Z,99927.91
2018-11-05T23:38:08.393Z,99931.98
2018-11-05T23:40:41.276Z,99935.05
2018-11-05T23:43:15.621Z,99936.28
2018-11-05T23:45:49.484Z,99935.28
2018-11-05T23:48:23.511Z,99935.34
2018-11-05T23:50:58.263Z,99934.73
2018-11-05T23:53:32.204Z,99935.41
2018-11-05T23:56:06.202Z,99930.81
2018-11-05T23:58:41.792Z,99937.13
